Tiempo atmosférico en la estación meteorológica de Liceras, Soria (1150 m.)



Fecha
DESCASC
Temp. máxima en grados centígrados (hora)
DESCASC
Temp. mínima en grados centígrados (hora)
DESCASC
Temp. media en grados centígrados
DESCASC
Racha de viento máxima en m/sg (hora)
DESCASC
Velocidad máxima media en intervalos de 10 minutos(hora)
DESCASC
Precipitaciones diarias en mm
DESCASC
Precipitaciones de 00:00 a 06:00 en mm
DESCASC
Precipitaciones de 06:00 a 12:00 en mm
DESCASC
Precipitaciones de 12:00 a 18:00 en mm
DESCASC
Precipitaciones de 18:00 a 24:00 en mm
DESCASC
13-10-2019 20.9 (15:40) 12.1 (04:20) 16.5 15.28 (14:00) 8.89 (11:40) 0 0 0 0 0
12-10-2019 24.2 (14:20) 14.8 (22:50) 19.5 17.78 (22:50) 10.56 (22:50) 0 0 0 0 0
10-10-2019 23.3 (14:00) 5.8 (00:00) 14.5 7.5 (01:40) 5.56 (10:20) 0 0 0 0 0
09-10-2019 20.5 (15:10) 8.4 (00:00) 14.4 9.17 (06:20) 6.11 (06:40) 0 0 0 0 0
08-10-2019 26.9 (15:10) 10.4 (00:00) 18.6 8.33 (16:20) 5.83 (18:10) 0 0 0 0 0
07-10-2019 22.8 (17:30) 10.3 (00:00) 16.5 8.33 (17:00) 5 (08:20) 0 0 0 0 0
06-10-2019 22.1 (17:00) 9.2 (00:00) 15.7 9.72 (13:00) 6.11 (15:10) 0 0 0 0 0
05-10-2019 23.6 (16:30) 9.6 (08:20) 16.6 8.61 (17:30) 5.56 (17:10) 0 0 0 0 0
04-10-2019 22.8 (15:40) 8.8 (00:00) 15.8 10.56 (16:10) 6.94 (16:10) 0 0 0 0 0
03-10-2019 21.3 (17:10) 7.2 (00:00) 14.2 11.39 (15:50) 7.5 (15:50) 0 0 0 0 0
02-10-2019 17 (16:00) 7.8 (00:00) 12.4 12.5 (05:00) 8.06 (04:30) 0 0 0 0 0
01-10-2019 20.4 (17:20) 12.7 (00:00) 16.5 11.67 (13:00) 8.61 (18:20) 0 0 0 0 0
30-09-2019 26.3 (16:50) 11.4 (00:00) 18.8 7.78 (17:50) 5 (02:20) 0 0 0 0 0
29-09-2019 25.4 (16:40) 10.7 (00:00) 18 11.11 (13:30) 8.06 (13:40) 0 0 0 0 0
28-09-2019 25.1 (17:10) 8.8 (00:00) 17 7.78 (17:30) 5.56 (17:30) 0 0 0 0 0
27-09-2019 23.3 (15:30) 11.4 (00:00) 17.3 9.72 (16:30) 6.39 (16:50) 0 0 0 0 0
26-09-2019 24.6 (16:00) 9.3 (00:00) 17 11.11 (15:30) 6.39 (15:50) 0 0 0 0 0
25-09-2019 18.3 (16:20) 8.6 (00:00) 13.4 11.39 (15:20) 7.78 (02:20) 0 0 0 0 0
24-09-2019 20.4 (14:40) 11 (00:00) 15.7 11.67 (20:00) 7.78 (11:20) 0 0 0 0 0
23-09-2019 20.6 (17:20) 7.4 (00:00) 14 8.33 (17:20) 5.28 (16:10) 0 0 0 0 0
22-09-2019 17.5 (17:00) 9.7 (00:00) 13.6 14.17 (00:10) 9.17 (00:10) 0.8 0.6 0 0.2 0
21-09-2019 18.4 (13:30) 12.4 (00:00) 15.4 13.89 (23:50) 9.17 (23:59) 5.2 5.2 0 0 0
20-09-2019 23.3 (14:50) 12.6 (00:00) 17.9 13.06 (07:30) 8.33 (07:30) 8.2 0 0 0 8.2
19-09-2019 24.1 (15:20) 11 (00:00) 17.6 8.61 (16:20) 4.72 (16:20) 0.4 0 0 0 0.4
18-09-2019 23.2 (18:00) 11.5 (00:00) 17.4 7.78 (16:30) 5 (19:00) 3.2 3.2 0 0 0
17-09-2019 26.3 (17:20) 12.5 (00:00) 19.4 13.06 (22:00) 6.67 (22:40) 2.8 0 0 0 2.8
16-09-2019 24.7 (16:40) 13.1 (00:00) 18.9 9.17 (00:10) 6.39 (00:10) 1 1 0 0 0
15-09-2019 19.1 (14:00) 12.9 (00:00) 16 10 (10:30) 7.22 (11:00) 16 0 0.2 15 0.8

Gráficas

Temp. máximas Temp. mínimas Temp. medias Precipitaciones Rachas de viento máximas Velocidades máximas media en intervalos de 10 minutos

Datos horarios

Fecha y hora oficial Temperatura (ºC) Velocidad del viento (km/h) Dirección del viento Racha (km/h) Dirección de racha Precipitación (mm) Presión (hPa) Tendencia (hPa) Humedad (%)
2019-10-14 23:00:00 6 37 Oeste 57 Oeste 0 -- -- 86
2019-10-14 22:00:00 6.3 26 Oeste 38 Oeste 0 -- -- 87
2019-10-14 21:00:00 6.4 30 Oeste 55 Oeste 0 -- -- 87
2019-10-14 20:00:00 5.9 29 Oeste 51 Oeste 0.6 -- -- 84
2019-10-14 19:00:00 5.9 39 Oeste 61 Oeste 2.2 -- -- 90
2019-10-14 18:00:00 8.9 40 Oeste 54 Noroeste 1.4 -- -- 84
2019-10-14 17:00:00 13.2 29 Oeste 42 Oeste 0 -- -- 58
2019-10-14 16:00:00 16.2 20 Oeste 30 Oeste 0 -- -- 46
2019-10-14 15:00:00 16.6 14 Noroeste 29 Oeste 0 -- -- 59
2019-10-14 14:00:00 13.7 14 Oeste 28 Oeste 0 -- -- 74
2019-10-14 13:00:00 16.3 29 Oeste 61 Sudoeste 0 -- -- 60
2019-10-14 12:00:00 17.6 35 Sudoeste 64 Sudoeste 0 -- -- 50
2019-10-14 11:00:00 16.8 44 Sudoeste 67 Sudoeste 0 -- -- 53
2019-10-14 10:00:00 16.2 31 Sudoeste 62 Sudoeste 0 -- -- 57
2019-10-14 09:00:00 15.4 14 Sur 39 Sur 0 -- -- 64
2019-10-14 08:00:00 15.4 24 Sur 56 Sur 0 -- -- 63
2019-10-14 07:00:00 15.7 10 Sur 41 Sur 0 -- -- 61
2019-10-14 06:00:00 16 10 Nordeste 26 Noroeste 0 -- -- 56
2019-10-14 05:00:00 14.5 5 Nordeste 19 Noroeste 0 -- -- 57
2019-10-14 04:00:00 13.8 5 Sudeste 22 Sudeste 0 -- -- 64
2019-10-14 03:00:00 14.5 8 Sur 23 Sur 0 -- -- 61
2019-10-14 02:00:00 13.7 5 Sudeste 35 Sur 0 -- -- 62
2019-10-14 01:00:00 17.5 26 Sur 42 Sudeste 0 -- -- 49
2019-10-14 00:00:00 15.5 21 Sur 41 Sudoeste 0 -- -- 57
2019-10-13 23:00:00 15.2 17 Sur 38 Sur 0 -- -- 60
2019-10-13 22:00:00 15.6 15 Sudoeste 39 Sur 0 -- -- 59
2019-10-13 21:00:00 16.6 19 Sudoeste 40 Sudoeste 0 -- -- 55
2019-10-13 20:00:00 16.8 17 Sur 40 Sur 0 -- -- 57
2019-10-13 19:00:00 18.6 20 Sur 49 Sur 0 -- -- 46
2019-10-13 18:00:00 19.8 20 Sur 39 Sur 0 -- -- 44
2019-10-13 17:00:00 20.6 22 Sur 47 Sur 0 -- -- 41
2019-10-13 16:00:00 20.6 27 Sudoeste 48 Sur 0 -- -- 40
2019-10-13 15:00:00 20.5 24 Sur 46 Sur 0 -- -- 43
2019-10-13 14:00:00 19.3 32 Sur 55 Sur 0 -- -- 47
2019-10-13 13:00:00 18.7 30 Sur 50 Sudoeste 0 -- -- 48
2019-10-13 12:00:00 18.8 26 Sur 47 Sudoeste 0 -- -- 51
2019-10-13 11:00:00 17.8 29 Sudoeste 47 Sur 0 -- -- 54
2019-10-13 10:00:00 16.5 24 Sudoeste 42 Sudoeste 0 -- -- 63
2019-10-13 09:00:00 14.5 23 Sur 43 Sur 0 -- -- 76
2019-10-13 08:00:00 13.9 20 Sur 28 Sur 0 -- -- 81
2019-10-13 07:00:00 14.7 15 Sur 28 Sudoeste 0 -- -- 78
2019-10-13 06:00:00 14.3 15 Sur 38 Sudoeste 0 -- -- 74
2019-10-13 05:00:00 14.6 16 Sudoeste 41 Sudoeste 0 -- -- 59
2019-10-13 04:00:00 12.8 11 Sudeste 35 Sur 0 -- -- 67
2019-10-13 03:00:00 15.2 17 Sur 37 Sur 0 -- -- 55
2019-10-13 02:00:00 15.9 23 Sur 47 Sur 0 -- -- 54
2019-10-13 01:00:00 15.3 27 Sur 51 Sur 0 -- -- 59
2019-10-13 00:00:00 16.1 24 Sur 57 Sur 0 -- -- 56
2019-10-12 23:00:00 14.9 32 Sur 64 Sur 0 -- -- 67
2019-10-12 22:00:00 18.9 18 Sudoeste 61 Oeste 0 -- -- 43
2019-10-12 21:00:00 18.8 20 Sudoeste 34 Sur 0 -- -- 53
2019-10-12 20:00:00 18.5 16 Sudoeste 40 Sur 0 -- -- 55
2019-10-12 19:00:00 19.8 21 Sur 43 Sudoeste 0 -- -- 50
2019-10-12 18:00:00 21.7 26 Sur 45 Sur 0 -- -- 40
2019-10-12 17:00:00 21.6 25 Sur 44 Sudoeste 0 -- -- 43
2019-10-12 16:00:00 22.4 24 Sudoeste 44 Sur 0 -- -- 41
2019-10-12 15:00:00 23.8 24 Sudoeste 47 Sur 0 -- -- 38
2019-10-12 14:00:00 23.5 29 Sudoeste 47 Sudoeste 0 -- -- 35
2019-10-12 13:00:00 20.6 21 Sur 42 Sur 0 -- -- 51
2019-10-12 12:00:00 18.8 19 Sur 33 Sur 0 -- -- 56
2019-10-12 11:00:00 17.4 9 Sudoeste 33 Sur 0 -- -- 65
2019-10-12 10:00:00 17 14 Sur 28 Sur 0 -- -- 64
2019-10-12 09:00:00 16.6 3 Noroeste 27 Sur 0 -- -- 60
2019-10-12 08:00:00 16.9 15 Sur 30 Sur 0 -- -- 61
2019-10-12 07:00:00 16.8 18 Sur 35 Sur 0 -- -- 62
2019-10-12 06:00:00 17.1 16 Sur 30 Sudoeste 0 -- -- 60
2019-10-12 05:00:00 17.2 9 Sur 28 Sudoeste 0 -- -- 58
2019-10-12 04:00:00 17.6 16 Sur 32 Sur 0 -- -- 57
2019-10-12 03:00:00 17.7 10 Sur 24 Sudoeste 0 -- -- 68
2019-10-12 02:00:00 19.1 11 Oeste 36 Sudoeste 0 -- -- 46
2019-10-12 01:00:00 20.3 25 Sudoeste 39 Sudoeste 0 -- -- 51
2019-10-12 00:00:00 19 13 Sur 33 Sur 0 -- -- 62
2019-10-11 23:00:00 18.7 15 Sudoeste 30 Sur 0 -- -- 64
2019-10-11 22:00:00 18.5 11 Sur 20 Sudoeste 0 -- -- 65
2019-10-11 21:00:00 19 7 Oeste 18 Sur 0 -- -- 62
2019-10-11 20:00:00 19.8 14 Sur 33 Sur 0 -- -- 58
2019-10-11 19:00:00 22.1 18 Sur 33 Sudoeste 0 -- -- 52
2019-10-11 18:00:00 23.6 20 Sur 41 Sur 0 -- -- 47
2019-10-11 17:00:00 24.7 21 Sur 36 Sudoeste 0 -- -- 43
2019-10-11 16:00:00 25.3 20 Sudoeste 36 Sur 0 -- -- 39
2019-10-11 15:00:00 25.8 18 Sudoeste 33 Sur 0 -- -- 40
2019-10-11 14:00:00 23.9 7 Nordeste 10 Nordeste 0 -- -- 42
2019-10-11 13:00:00 23.1 2 Noroeste 17 Sudoeste 0 -- -- 45
2019-10-11 12:00:00 25.4 8 Oeste 19 Oeste 0 -- -- 41
2019-10-11 11:00:00 23.9 5 Sur 10 Sur 0 -- -- 44
2019-10-11 10:00:00 21.3 3 Sudeste 13 Sudeste 0 -- -- 52
2019-10-11 09:00:00 15.8 9 Sur 15 Sur 0 -- -- 67
2019-10-11 08:00:00 14.4 4 Sur 8 Sudoeste 0 -- -- 68
2019-10-11 07:00:00 15.6 3 Sur 9 Sur 0 -- -- 64
2019-10-11 06:00:00 14.9 7 Sudeste 11 Sudeste 0 -- -- 66
2019-10-11 05:00:00 15.4 9 Sur 19 Sur 0 -- -- 65
2019-10-11 04:00:00 15.5 14 Sur 20 Sur 0 -- -- 66
2019-10-11 03:00:00 15.9 12 Sur 20 Sudoeste 0 -- -- 65
2019-10-11 02:00:00 13.8 4 Sudeste 9 Sudeste 0 -- -- 71
2019-10-11 01:00:00 13.9 6 Sudeste 10 Sur 0 -- -- 72
2019-10-11 00:00:00 15.6 11 Sudoeste 15 Sur 0 -- -- 66
2019-10-10 23:00:00 16.5 10 Sur 15 Sur 0 -- -- 62
2019-10-10 22:00:00 16.6 11 Sur 18 Sur 0 -- -- 63
2019-10-10 21:00:00 17.5 8 Sur 15 Sur 0 -- -- 61
2019-10-10 20:00:00 18.9 9 Sur 16 Sur 0 -- -- 58
2019-10-10 19:00:00 21.7 10 Norte 19 Norte 0 -- -- 50
2019-10-10 18:00:00 22.5 11 Norte 21 Norte 0 -- -- 48
2019-10-10 17:00:00 22.7 9 Nordeste 21 Nordeste 0 -- -- 48
2019-10-10 16:00:00 22.5 12 Norte 24 Norte 0 -- -- 48
2019-10-10 15:00:00 21.8 14 Nordeste 24 Noroeste 0 -- -- 50
2019-10-10 14:00:00 23.3 6 Sudoeste 23 Sudeste 0 -- -- 45
2019-10-10 13:00:00 22.3 10 Sudeste 25 Nordeste 0 -- -- 51
2019-10-10 12:00:00 19.3 12 Nordeste 19 Este 0 -- -- 55
2019-10-10 11:00:00 15.5 14 Sudeste 26 Sudeste 0 -- -- 64
2019-10-10 10:00:00 11.3 16 Sudeste 23 Sudeste 0 -- -- 73
2019-10-10 09:00:00 8.5 5 Este 12 Sudeste 0 -- -- 84
2019-10-10 08:00:00 6.4 7 Este 15 Sudeste 0 -- -- 89
2019-10-10 07:00:00 5.8 9 Sudeste 20 Sudeste 0 -- -- 90
2019-10-10 06:00:00 6.9 13 Sudeste 17 Sudeste 0 -- -- 90
2019-10-10 05:00:00 6.7 12 Sudeste 17 Sudeste 0 -- -- 89
2019-10-10 04:00:00 7.1 13 Sudeste 17 Sudeste 0 -- -- 87
2019-10-10 03:00:00 7.3 11 Sudeste 17 Sudeste 0 -- -- 87
2019-10-10 02:00:00 9.2 12 Sudeste 27 Sudeste 0 -- -- 81
2019-10-10 01:00:00 9.6 15 Sudeste 21 Sudeste 0 -- -- 84
2019-10-10 00:00:00 8.4 13 Sudeste 15 Este 0 -- -- 81
2019-10-09 23:00:00 10.1 6 Sudeste 16 Este 0 -- -- 71
2019-10-09 22:00:00 11.8 4 Sudoeste 6 Sudoeste 0 -- -- 66
2019-10-09 21:00:00 11.6 4 Noroeste 13 Norte 0 -- -- 66
2019-10-09 20:00:00 14 6 Noroeste 17 Noroeste 0 -- -- 57
2019-10-09 19:00:00 18.6 14 Noroeste 23 Noroeste 0 -- -- 42
2019-10-09 18:00:00 19.8 18 Noroeste 27 Noroeste 0 -- -- 42
2019-10-09 17:00:00 20 18 Noroeste 29 Noroeste 0 -- -- 47
2019-10-09 16:00:00 20 15 Noroeste 33 Noroeste 0 -- -- 49
2019-10-09 15:00:00 20.4 20 Noroeste 30 Oeste 0 -- -- 45
2019-10-09 14:00:00 20.1 15 Noroeste 28 Noroeste 0 -- -- 53
2019-10-09 13:00:00 18.6 14 Oeste 23 Oeste 0 -- -- 61
2019-10-09 12:00:00 15.8 12 Oeste 22 Noroeste 0 -- -- 76
2019-10-09 11:00:00 13.3 19 Noroeste 26 Noroeste 0 -- -- 85
2019-10-09 10:00:00 14.5 14 Oeste 20 Oeste 0 -- -- 82
2019-10-09 09:00:00 13.6 7 Oeste 17 Oeste 0 -- -- 82
2019-10-09 08:00:00 13.2 14 Oeste 27 Noroeste 0 -- -- 84
2019-10-09 07:00:00 12.6 21 Noroeste 33 Noroeste 0 -- -- 80
2019-10-09 06:00:00 14.4 5 Sudoeste 19 Oeste 0 -- -- 75
2019-10-09 05:00:00 14.2 5 Noroeste 17 Oeste 0 -- -- 74
2019-10-09 04:00:00 14.9 3 Oeste 16 Oeste 0 -- -- 71
2019-10-09 03:00:00 16.3 10 Oeste 17 Oeste 0 -- -- 65
2019-10-09 02:00:00 17.1 9 Oeste 18 Noroeste 0 -- -- 60
2019-10-09 01:00:00 17.5 9 Oeste 15 Sudoeste 0 -- -- 53
2019-10-09 00:00:00 16.9 12 Sudoeste 15 Sudoeste 0 -- -- 52
2019-10-08 23:00:00 17.5 10 Sur 12 Sur 0 -- -- 50
2019-10-08 22:00:00 17.7 7 Sudoeste 13 Oeste 0 -- -- 49
2019-10-08 21:00:00 19.5 12 Oeste 17 Oeste 0 -- -- 44
2019-10-08 20:00:00 20.3 11 Noroeste 23 Oeste 0 -- -- 42
2019-10-08 19:00:00 25.3 13 Oeste 27 Oeste 0 -- -- 31
2019-10-08 18:00:00 26.2 19 Noroeste 28 Noroeste 0 -- -- 30
2019-10-08 17:00:00 26.6 16 Noroeste 30 Oeste 0 -- -- 29
2019-10-08 16:00:00 26.6 15 Noroeste 29 Oeste 0 -- -- 31
2019-10-08 15:00:00 26.7 5 Oeste 18 Oeste 0 -- -- 30
2019-10-08 14:00:00 26.3 7 Noroeste 18 Noroeste 0 -- -- 33
2019-10-08 13:00:00 26 6 Norte 14 Norte 0 -- -- 32
2019-10-08 12:00:00 26.3 6 Sudoeste 10 Sudoeste 0 -- -- 32
2019-10-08 11:00:00 24.6 3 Sudeste 8 Sudeste 0 -- -- 35
2019-10-08 10:00:00 18.8 4 Sudeste 10 Sudeste 0 -- -- 53
2019-10-08 09:00:00 13.5 5 Sudeste 10 Sudeste 0 -- -- 67
2019-10-08 08:00:00 10.7 0 Calma 10 Sudeste 0 -- -- 74
2019-10-08 07:00:00 11.6 4 Sur 10 Sudeste 0 -- -- 70
2019-10-08 06:00:00 11.7 5 Sudeste 10 Sudeste 0 -- -- 65
2019-10-08 05:00:00 12.5 6 Sudeste 11 Sudeste 0 -- -- 59
2019-10-08 04:00:00 11.2 3 Sudeste 14 Sudoeste 0 -- -- 61
2019-10-08 03:00:00 13.3 14 Sudoeste 17 Sur 0 -- -- 54
2019-10-08 02:00:00 12.3 3 Sudeste 16 Sur 0 -- -- 57
2019-10-08 01:00:00 12.7 7 Sudeste 17 Sudoeste 0 -- -- 57
2019-10-08 00:00:00 13.3 6 Sudoeste 15 Oeste 0 -- -- 55
2019-10-07 23:00:00 14.2 5 Oeste 12 Oeste 0 -- -- 54
2019-10-07 22:00:00 14.9 6 Sudeste 16 Oeste 0 -- -- 51
2019-10-07 21:00:00 16.8 13 Oeste 19 Oeste 0 -- -- 46
2019-10-07 20:00:00 17.5 12 Noroeste 21 Noroeste 0 -- -- 42
2019-10-07 19:00:00 21.5 15 Noroeste 26 Noroeste 0 -- -- 33
2019-10-07 18:00:00 22.6 17 Noroeste 29 Noroeste 0 -- -- 31
2019-10-07 17:00:00 22.4 17 Noroeste 30 Noroeste 0 -- -- 32
2019-10-07 16:00:00 21.9 16 Norte 28 Norte 0 -- -- 40
2019-10-07 15:00:00 21.6 14 Norte 26 Norte 0 -- -- 34
2019-10-07 14:00:00 20.8 13 Norte 24 Noroeste 0 -- -- 31
2019-10-07 13:00:00 19.4 12 Noroeste 21 Oeste 0 -- -- 31
2019-10-07 12:00:00 18 11 Oeste 15 Oeste 0 -- -- 32
2019-10-07 11:00:00 17.5 10 Noroeste 20 Noroeste 0 -- -- 30
2019-10-07 10:00:00 15.9 12 Oeste 18 Oeste 0 -- -- 48
2019-10-07 09:00:00 12.9 17 Oeste 22 Oeste 0 -- -- 59
2019-10-07 08:00:00 10.7 15 Oeste 22 Oeste 0 -- -- 66
2019-10-07 07:00:00 11.2 18 Oeste 23 Oeste 0 -- -- 66
2019-10-07 06:00:00 11 15 Oeste 17 Oeste 0 -- -- 69
2019-10-07 05:00:00 11.4 15 Oeste 21 Oeste 0 -- -- 66
2019-10-07 04:00:00 10.7 9 Noroeste 21 Noroeste 0 -- -- 69
2019-10-07 03:00:00 10.6 9 Noroeste 12 Noroeste 0 -- -- 68
2019-10-07 02:00:00 11.3 4 Noroeste 6 Noroeste 0 -- -- 69
2019-10-07 01:00:00 11.9 5 Noroeste 15 Oeste 0 -- -- 66
2019-10-07 00:00:00 12.9 13 Oeste 15 Oeste 0 -- -- 63
2019-10-06 23:00:00 12.7 5 Noroeste 13 Noroeste 0 -- -- 64
2019-10-06 22:00:00 13.5 8 Noroeste 11 Noroeste 0 -- -- 61
2019-10-06 21:00:00 14.5 4 Norte 16 Norte 0 -- -- 56
2019-10-06 20:00:00 17 15 Noroeste 27 Norte 0 -- -- 48
2019-10-06 19:00:00 19.4 21 Norte 30 Norte 0 -- -- 43
2019-10-06 18:00:00 21.3 21 Noroeste 33 Oeste 0 -- -- 36
2019-10-06 17:00:00 22.1 17 Noroeste 32 Oeste 0 -- -- 32
2019-10-06 16:00:00 21.2 19 Noroeste 31 Oeste 0 -- -- 36
2019-10-06 15:00:00 20.7 18 Oeste 32 Noroeste 0 -- -- 39
2019-10-06 14:00:00 18.1 20 Noroeste 29 Noroeste 0 -- -- 49
2019-10-06 13:00:00 18.7 22 Noroeste 35 Noroeste 0 -- -- 50
2019-10-06 12:00:00 17.5 19 Noroeste 28 Noroeste 0 -- -- 55
2019-10-06 11:00:00 17 14 Oeste 22 Oeste 0 -- -- 59
2019-10-06 10:00:00 13 8 Oeste 17 Oeste 0 -- -- 70
2019-10-06 09:00:00 11.8 0 Calma 21 Oeste 0 -- -- 72
2019-10-06 08:00:00 10.3 16 Oeste 26 Noroeste 0 -- -- 77
2019-10-06 07:00:00 9.3 6 Sudoeste 13 Oeste 0 -- -- 76
2019-10-06 06:00:00 10.1 5 Oeste 11 Oeste 0 -- -- 72
2019-10-06 05:00:00 10.8 4 Oeste 16 Oeste 0 -- -- 68
2019-10-06 04:00:00 12.7 15 Oeste 20 Oeste 0 -- -- 63
2019-10-06 03:00:00 11.3 0 Calma 14 Sudoeste 0 -- -- 71
2019-10-06 02:00:00 12 5 Sudoeste 15 Oeste 0 -- -- 68
2019-10-06 01:00:00 13 2 Noroeste 10 Sudoeste 0 -- -- 64
2019-10-06 00:00:00 13.6 7 Sudoeste 12 Oeste 0 -- -- 62
2019-10-05 23:00:00 14.4 9 Sudoeste 15 Sudoeste 0 -- -- 60
2019-10-05 22:00:00 15.3 10 Sudoeste 13 Sudoeste 0 -- -- 54
2019-10-05 21:00:00 15.8 6 Oeste 10 Noroeste 0 -- -- 56
2019-10-05 20:00:00 17.4 10 Noroeste 22 Noroeste 0 -- -- 47
2019-10-05 19:00:00 22.6 16 Noroeste 29 Noroeste 0 -- -- 31
2019-10-05 18:00:00 23.5 16 Noroeste 31 Noroeste 0 -- -- 30
2019-10-05 17:00:00 23.6 18 Oeste 26 Oeste 0 -- -- 34
2019-10-05 16:00:00 23.4 10 Noroeste 21 Noroeste 0 -- -- 39
2019-10-05 15:00:00 22 8 Noroeste 22 Noroeste 0 -- -- 45
2019-10-05 14:00:00 21.7 8 Norte 17 Noroeste 0 -- -- 48
2019-10-05 13:00:00 20.9 8 Noroeste 18 Sudoeste 0 -- -- 48
2019-10-05 12:00:00 20.2 8 Noroeste 15 Noroeste 0 -- -- 54
2019-10-05 11:00:00 19.6 5 Noroeste 12 Norte 0 -- -- 56
2019-10-05 10:00:00 17.1 3 Sudoeste 9 Sudoeste 0 -- -- 65
2019-10-05 09:00:00 12.9 3 Sudeste 6 Este 0 -- -- 76
2019-10-05 08:00:00 10.1 2 Este 4 Sur 0 -- -- 85
2019-10-05 07:00:00 9.7 2 Sudeste 6 Sur 0 -- -- 86
2019-10-05 06:00:00 10.6 3 Sur 6 Sur 0 -- -- 84
2019-10-05 05:00:00 10.7 2 Sudeste 6 Sur 0 -- -- 87
2019-10-05 04:00:00 12.1 2 Sudeste 5 Sur 0 -- -- 82
2019-10-05 03:00:00 11.5 2 Oeste 10 Oeste 0 -- -- 82
2019-10-05 02:00:00 12.3 5 Noroeste 14 Oeste 0 -- -- 79
2019-10-05 01:00:00 13 8 Oeste 16 Oeste 0 -- -- 78
2019-10-05 00:00:00 14.5 11 Oeste 14 Oeste 0 -- -- 73
2019-10-04 23:00:00 14.8 11 Oeste 19 Oeste 0 -- -- 69
2019-10-04 22:00:00 15.4 13 Oeste 18 Oeste 0 -- -- 65
2019-10-04 21:00:00 16.4 14 Oeste 21 Oeste 0 -- -- 56
2019-10-04 20:00:00 18.2 13 Oeste 28 Oeste 0 -- -- 49
2019-10-04 19:00:00 21.5 19 Oeste 30 Oeste 0 -- -- 39
2019-10-04 18:00:00 22.5 21 Oeste 35 Oeste 0 -- -- 40
2019-10-04 17:00:00 22.7 20 Oeste 38 Oeste 0 -- -- 43
2019-10-04 16:00:00 22.6 21 Oeste 33 Oeste 0 -- -- 41
2019-10-04 15:00:00 21.9 17 Noroeste 32 Noroeste 0 -- -- 47
2019-10-04 14:00:00 22 21 Noroeste 28 Noroeste 0 -- -- 43
2019-10-04 13:00:00 21.7 12 Noroeste 28 Noroeste 0 -- -- 45
2019-10-04 12:00:00 20.3 5 Noroeste 13 Oeste 0 -- -- 49
2019-10-04 11:00:00 17.2 9 Noroeste 15 Noroeste 0 -- -- 58
2019-10-04 10:00:00 15.6 8 Oeste 11 Oeste 0 -- -- 56
2019-10-04 09:00:00 11 2 Oeste 8 Sudeste 0 -- -- 68
2019-10-04 08:00:00 9.3 3 Sudeste 10 Sudeste 0 -- -- 72
2019-10-04 07:00:00 10.1 5 Sudeste 13 Sudoeste 0 -- -- 67
2019-10-04 06:00:00 10.9 6 Noroeste 10 Oeste 0 -- -- 73
2019-10-04 05:00:00 11.5 8 Oeste 18 Oeste 0 -- -- 60
2019-10-04 04:00:00 12.7 15 Oeste 21 Oeste 0 -- -- 52
2019-10-04 03:00:00 12.4 12 Oeste 14 Oeste 0 -- -- 53
2019-10-04 02:00:00 13.4 13 Oeste 15 Oeste 0 -- -- 50
2019-10-04 01:00:00 11.3 6 Oeste 11 Sudoeste 0 -- -- 57
2019-10-04 00:00:00 12.6 8 Oeste 14 Sudoeste 0 -- -- 53
2019-10-03 23:00:00 13.1 12 Sudoeste 15 Sudoeste 0 -- -- 51
2019-10-03 22:00:00 13.6 4 Sur 10 Sur 0 -- -- 51
2019-10-03 21:00:00 14.4 0 Calma 12 Noroeste 0 -- -- 47
2019-10-03 20:00:00 16 11 Noroeste 22 Noroeste 0 -- -- 43
2019-10-03 19:00:00 20.3 17 Noroeste 29 Noroeste 0 -- -- 36
2019-10-03 18:00:00 21.1 17 Noroeste 32 Noroeste 0 -- -- 33
2019-10-03 17:00:00 21.1 22 Noroeste 39 Noroeste 0 -- -- 35
2019-10-03 16:00:00 21 24 Noroeste 41 Oeste 0 -- -- 36
2019-10-03 15:00:00 19.9 24 Noroeste 33 Noroeste 0 -- -- 38
2019-10-03 14:00:00 19.2 21 Noroeste 32 Noroeste 0 -- -- 41
2019-10-03 13:00:00 18.3 18 Noroeste 35 Oeste 0 -- -- 44
2019-10-03 12:00:00 16.9 19 Noroeste 28 Noroeste 0 -- -- 47
2019-10-03 11:00:00 15.2 19 Oeste 26 Noroeste 0 -- -- 53
2019-10-03 10:00:00 12.6 18 Oeste 26 Oeste 0 -- -- 60
2019-10-03 09:00:00 11.7 14 Oeste 23 Oeste 0 -- -- 62
2019-10-03 08:00:00 9 13 Oeste 15 Oeste 0 -- -- 72
2019-10-03 07:00:00 7.6 9 Oeste 12 Oeste 0 -- -- 80
2019-10-03 06:00:00 8.1 0 Calma 8 Oeste 0 -- -- 75
2019-10-03 05:00:00 8.1 0 Calma 10 Oeste 0 -- -- 76
2019-10-03 04:00:00 8.2 9 Oeste 10 Oeste 0 -- -- 77
2019-10-03 03:00:00 7.9 3 Oeste 10 Sur 0 -- -- 78
2019-10-03 02:00:00 8 0 Calma 11 Sudoeste 0 -- -- 79
2019-10-03 01:00:00 8.3 9 Sudoeste 12 Sudoeste 0 -- -- 77
2019-10-03 00:00:00 8.9 4 Oeste 8 Noroeste 0 -- -- 74
2019-10-02 23:00:00 9.2 5 Noroeste 7 Noroeste 0 -- -- 73
2019-10-02 22:00:00 10.5 5 Norte 12 Norte 0 -- -- 67
2019-10-02 21:00:00 12.4 12 Norte 19 Noroeste 0 -- -- 60
2019-10-02 20:00:00 13.3 11 Noroeste 24 Noroeste 0 -- -- 56
2019-10-02 19:00:00 16.3 16 Norte 25 Norte 0 -- -- 48
2019-10-02 18:00:00 16.7 19 Norte 31 Noroeste 0 -- -- 48
2019-10-02 17:00:00 16.5 17 Norte 27 Norte 0 -- -- 48
2019-10-02 16:00:00 17 20 Norte 31 Norte 0 -- -- 49
2019-10-02 15:00:00 15 18 Norte 27 Norte 0 -- -- 54
2019-10-02 14:00:00 15.4 15 Norte 26 Norte 0 -- -- 56
2019-10-02 13:00:00 14.4 14 Noroeste 33 Noroeste 0 -- -- 62
2019-10-02 12:00:00 13.1 17 Noroeste 29 Oeste 0 -- -- 66
2019-10-02 11:00:00 11.8 21 Oeste 30 Oeste 0 -- -- 70
2019-10-02 10:00:00 9.7 27 Oeste 33 Oeste 0 -- -- 80
2019-10-02 09:00:00 7.8 23 Oeste 35 Oeste 0 -- -- 92
2019-10-02 08:00:00 8.1 24 Noroeste 36 Noroeste 0 -- -- 92
2019-10-02 07:00:00 7.9 22 Noroeste 31 Oeste 0 -- -- 92
2019-10-02 06:00:00 8.5 22 Noroeste 36 Oeste 0 -- -- 88
2019-10-02 05:00:00 9.2 27 Oeste 45 Oeste 0 -- -- 84
2019-10-02 04:00:00 10.1 26 Oeste 36 Oeste 0 -- -- 79
2019-10-02 03:00:00 10.9 24 Oeste 35 Oeste 0 -- -- 73
2019-10-02 02:00:00 11.5 21 Noroeste 31 Oeste 0 -- -- 70
2019-10-02 01:00:00 12.1 20 Oeste 30 Oeste 0 -- -- 66
2019-10-02 00:00:00 12.7 22 Oeste 32 Oeste 0 -- -- 66
2019-10-01 23:00:00 14.5 23 Oeste 40 Oeste 0 -- -- 59
2019-10-01 22:00:00 15.3 22 Oeste 31 Oeste 0 -- -- 57
2019-10-01 21:00:00 15.5 17 Oeste 27 Oeste 0 -- -- 57
2019-10-01 20:00:00 17.1 22 Oeste 42 Oeste 0 -- -- 54
2019-10-01 19:00:00 19.2 29 Noroeste 42 Oeste 0 -- -- 48
2019-10-01 18:00:00 19.7 29 Oeste 42 Oeste 0 -- -- 49
2019-10-01 17:00:00 19.9 26 Oeste 41 Oeste 0 -- -- 47
2019-10-01 16:00:00 19.9 26 Oeste 41 Oeste 0 -- -- 48
2019-10-01 15:00:00 18.5 23 Oeste 37 Oeste 0 -- -- 59
2019-10-01 14:00:00 17.8 24 Oeste 36 Oeste 0 -- -- 66
2019-10-01 13:00:00 16.8 27 Oeste 42 Oeste 0 -- -- 72
2019-10-01 12:00:00 16.4 28 Noroeste 39 Oeste 0 -- -- 73
2019-10-01 11:00:00 17.1 19 Noroeste 31 Noroeste 0 -- -- 67
2019-10-01 10:00:00 17.7 15 Noroeste 24 Oeste 0 -- -- 60
2019-10-01 09:00:00 14.6 11 Oeste 40 Oeste 0 -- -- 64
2019-10-01 08:00:00 13.8 17 Oeste 28 Oeste 0 -- -- 57
2019-10-01 07:00:00 14.1 7 Sur 13 Sur 0 -- -- 49
2019-10-01 06:00:00 15.7 0 Calma 10 Sudoeste 0 -- -- 42
2019-10-01 05:00:00 15.3 8 Sudoeste 17 Oeste 0 -- -- 40
2019-10-01 04:00:00 16.1 5 Oeste 20 Oeste 0 -- -- 37
2019-10-01 03:00:00 17.4 12 Oeste 21 Sudoeste 0 -- -- 35
2019-10-01 02:00:00 16.2 4 Sudoeste 13 Oeste 0 -- -- 40
2019-10-01 01:00:00 16.2 12 Sudoeste 16 Oeste 0 -- -- 41
2019-10-01 00:00:00 16.7 12 Sudoeste 17 Sudoeste 0 -- -- 37
2019-09-30 23:00:00 17.1 13 Sur 16 Sur 0 -- -- 37
2019-09-30 22:00:00 18.6 4 Sudeste 15 Oeste 0 -- -- 35
2019-09-30 21:00:00 20.4 8 Oeste 23 Oeste 0 -- -- 32
2019-09-30 20:00:00 21 5 Oeste 15 Oeste 0 -- -- 38
2019-09-30 19:00:00 25.4 10 Oeste 28 Oeste 0 -- -- 24
2019-09-30 18:00:00 25.8 17 Oeste 28 Noroeste 0 -- -- 25
2019-09-30 17:00:00 26.1 6 Este 22 Oeste 0 -- -- 25
2019-09-30 16:00:00 25.6 13 Noroeste 24 Oeste 0 -- -- 26
2019-09-30 15:00:00 24.9 6 Noroeste 15 Noroeste 0 -- -- 32
2019-09-30 14:00:00 24.5 12 Noroeste 24 Noroeste 0 -- -- 34
2019-09-30 13:00:00 24.7 3 Norte 10 Este 0 -- -- 33
2019-09-30 12:00:00 22.8 3 Nordeste 6 Norte 0 -- -- 38
2019-09-30 11:00:00 21.4 4 Oeste 8 Oeste 0 -- -- 40
2019-09-30 10:00:00 19.6 3 Sudoeste 13 Sur 0 -- -- 44
2019-09-30 09:00:00 13 9 Sur 16 Sur 0 -- -- 65
2019-09-30 08:00:00 11.7 5 Oeste 12 Oeste 0 -- -- 70
2019-09-30 07:00:00 12.1 10 Oeste 13 Oeste 0 -- -- 69
2019-09-30 06:00:00 12.8 11 Oeste 15 Oeste 0 -- -- 66
2019-09-30 05:00:00 13.2 10 Oeste 13 Oeste 0 -- -- 64
2019-09-30 04:00:00 14.2 9 Oeste 15 Oeste 0 -- -- 61
2019-09-30 03:00:00 16 12 Oeste 23 Oeste 0 -- -- 53
2019-09-30 02:00:00 16.3 16 Oeste 21 Oeste 0 -- -- 44
2019-09-30 01:00:00 16.6 13 Oeste 20 Oeste 0 -- -- 37
2019-09-30 00:00:00 16.7 8 Oeste 15 Oeste 0 -- -- 32
2019-09-29 23:00:00 17.3 6 Sudoeste 13 Oeste 0 -- -- 31
2019-09-29 22:00:00 18.1 6 Sudoeste 13 Oeste 0 -- -- 31
2019-09-29 21:00:00 18.4 4 Sudoeste 17 Oeste 0 -- -- 32
2019-09-29 20:00:00 20.6 13 Oeste 27 Oeste 0 -- -- 27
2019-09-29 19:00:00 24.1 19 Oeste 30 Oeste 0 -- -- 21
2019-09-29 18:00:00 25.1 19 Oeste 36 Oeste 0 -- -- 19
2019-09-29 17:00:00 25 21 Noroeste 33 Noroeste 0 -- -- 24
2019-09-29 16:00:00 25 19 Oeste 37 Noroeste 0 -- -- 24
2019-09-29 15:00:00 24.9 20 Oeste 37 Noroeste 0 -- -- 26
2019-09-29 14:00:00 24.5 24 Noroeste 40 Noroeste 0 -- -- 27
2019-09-29 13:00:00 23.6 23 Noroeste 35 Oeste 0 -- -- 31
2019-09-29 12:00:00 22.8 22 Noroeste 32 Noroeste 0 -- -- 31
2019-09-29 11:00:00 21.4 8 Oeste 13 Oeste 0 -- -- 38
2019-09-29 10:00:00 19.7 4 Noroeste 10 Sur 0 -- -- 39
2019-09-29 09:00:00 14.2 7 Sudeste 12 Sur 0 -- -- 49
2019-09-29 08:00:00 10.7 5 Sudeste 17 Sur 0 -- -- 56
2019-09-29 07:00:00 12.1 12 Sur 15 Sur 0 -- -- 52
2019-09-29 06:00:00 11.7 0 Calma 15 Sur 0 -- -- 53
2019-09-29 05:00:00 13.1 6 Sur 11 Sur 0 -- -- 50
2019-09-29 04:00:00 12.7 4 Sudeste 9 Sur 0 -- -- 50
2019-09-29 03:00:00 13.7 3 Sudeste 12 Sur 0 -- -- 47
2019-09-29 02:00:00 13.9 10 Sur 13 Sur 0 -- -- 50
2019-09-29 01:00:00 13.3 9 Sur 13 Sur 0 -- -- 55
2019-09-29 00:00:00 15.3 3 Sudeste 14 Sudoeste 0 -- -- 48
2019-09-28 23:00:00 16 7 Sur 10 Sudoeste 0 -- -- 48
2019-09-28 22:00:00 15.5 7 Sudeste 12 Sudeste 0 -- -- 54
2019-09-28 21:00:00 18.3 4 Sudeste 6 Sudeste 0 -- -- 48
2019-09-28 20:00:00 19.7 4 Norte 20 Oeste 0 -- -- 42
2019-09-28 19:00:00 24.3 16 Noroeste 26 Noroeste 0 -- -- 22
2019-09-28 18:00:00 25.1 16 Noroeste 28 Noroeste 0 -- -- 25
2019-09-28 17:00:00 25 14 Oeste 27 Noroeste 0 -- -- 27
2019-09-28 16:00:00 24.8 9 Noroeste 20 Noroeste 0 -- -- 29
2019-09-28 15:00:00 23.9 8 Oeste 19 Noroeste 0 -- -- 37
2019-09-28 14:00:00 22.6 8 Norte 16 Norte 0 -- -- 45
2019-09-28 13:00:00 21.4 8 Nordeste 17 Norte 0 -- -- 49
2019-09-28 12:00:00 21.3 4 Norte 11 Este 0 -- -- 50
2019-09-28 11:00:00 19.8 4 Este 10 Sudeste 0 -- -- 54
2019-09-28 10:00:00 16.3 4 Sudeste 8 Sur 0 -- -- 71
2019-09-28 09:00:00 11.6 4 Sudeste 9 Sudeste 0 -- -- 83
2019-09-28 08:00:00 9 4 Sudeste 12 Sur 0 -- -- 91
2019-09-28 07:00:00 10.5 4 Sudeste 10 Sur 0 -- -- 85
2019-09-28 06:00:00 10.5 0 Calma 11 Oeste 0 -- -- 83
2019-09-28 05:00:00 11.3 9 Sudoeste 22 Oeste 0 -- -- 81
2019-09-28 04:00:00 13.7 13 Oeste 23 Oeste 0 -- -- 73
2019-09-28 03:00:00 13.5 9 Sudoeste 17 Oeste 0 -- -- 73
2019-09-28 02:00:00 13.6 12 Oeste 19 Oeste 0 -- -- 65
2019-09-28 01:00:00 14.5 13 Oeste 20 Oeste 0 -- -- 51
2019-09-28 00:00:00 14.4 7 Sudoeste 13 Oeste 0 -- -- 45
2019-09-27 23:00:00 15 11 Oeste 17 Oeste 0 -- -- 39
2019-09-27 22:00:00 14.7 9 Oeste 15 Oeste 0 -- -- 40
2019-09-27 21:00:00 15.7 13 Oeste 18 Oeste 0 -- -- 38
2019-09-27 20:00:00 18.2 10 Oeste 27 Oeste 0 -- -- 32
2019-09-27 19:00:00 22.2 19 Oeste 29 Noroeste 0 -- -- 26
2019-09-27 18:00:00 23 17 Oeste 30 Noroeste 0 -- -- 28
2019-09-27 17:00:00 22.9 20 Oeste 35 Oeste 0 -- -- 26
2019-09-27 16:00:00 23.2 19 Noroeste 34 Noroeste 0 -- -- 28
2019-09-27 15:00:00 22.9 18 Noroeste 31 Noroeste 0 -- -- 29
2019-09-27 14:00:00 22.8 18 Oeste 32 Noroeste 0 -- -- 30
2019-09-27 13:00:00 21.7 19 Noroeste 28 Noroeste 0 -- -- 26
2019-09-27 12:00:00 20.7 16 Oeste 27 Oeste 0 -- -- 36
2019-09-27 11:00:00 18 19 Oeste 26 Oeste 0 -- -- 46
2019-09-27 10:00:00 15.8 16 Oeste 23 Oeste 0 -- -- 50
2019-09-27 09:00:00 13.4 8 Sudoeste 14 Oeste 0 -- -- 53
2019-09-27 08:00:00 11.4 6 Sudoeste 24 Oeste 0 -- -- 56
2019-09-27 07:00:00 11.7 12 Oeste 20 Oeste 0 -- -- 56
2019-09-27 06:00:00 12.1 10 Noroeste 16 Oeste 0 -- -- 54
2019-09-27 05:00:00 13.9 13 Oeste 19 Oeste 0 -- -- 48
2019-09-27 04:00:00 14.6 11 Sudoeste 21 Oeste 0 -- -- 43
2019-09-27 03:00:00 15.6 17 Oeste 23 Oeste 0 -- -- 42
2019-09-27 02:00:00 15.3 6 Oeste 12 Oeste 0 -- -- 45
2019-09-27 01:00:00 13.4 5 Sur 10 Sur 0 -- -- 57
2019-09-27 00:00:00 14.7 9 Sur 10 Sur 0 -- -- 55
2019-09-26 23:00:00 14.9 5 Sudoeste 11 Sur 0 -- -- 53
2019-09-26 22:00:00 16.3 8 Oeste 12 Oeste 0 -- -- 46
2019-09-26 21:00:00 16.6 8 Noroeste 15 Noroeste 0 -- -- 47
2019-09-26 20:00:00 20.1 10 Noroeste 21 Noroeste 0 -- -- 42
2019-09-26 19:00:00 23.5 16 Noroeste 26 Noroeste 0 -- -- 36
2019-09-26 18:00:00 24.1 16 Noroeste 34 Oeste 0 -- -- 35
2019-09-26 17:00:00 24.3 22 Oeste 36 Oeste 0 -- -- 33
2019-09-26 16:00:00 24.6 20 Oeste 40 Oeste 0 -- -- 33
2019-09-26 15:00:00 24.2 18 Oeste 30 Oeste 0 -- -- 34
2019-09-26 14:00:00 23.1 11 Noroeste 18 Oeste 0 -- -- 40
2019-09-26 13:00:00 22.2 6 Norte 14 Noroeste 0 -- -- 43
2019-09-26 12:00:00 21.4 4 Norte 12 Norte 0 -- -- 45
2019-09-26 11:00:00 19.9 3 Este 7 Sudeste 0 -- -- 48
2019-09-26 10:00:00 16.7 3 Este 6 Sudeste 0 -- -- 61
2019-09-26 09:00:00 12.7 4 Sudeste 7 Sur 0 -- -- 70
2019-09-26 08:00:00 10.8 4 Sur 9 Sur 0 -- -- 74
2019-09-26 07:00:00 9.9 0 Calma 13 Oeste 0 -- -- 78
2019-09-26 06:00:00 9.9 0 Calma 5 Sudeste 0 -- -- 79
2019-09-26 05:00:00 9.4 5 Sudeste 11 Sur 0 -- -- 83
2019-09-26 04:00:00 10.3 8 Sur 13 Sudoeste 0 -- -- 78
2019-09-26 03:00:00 10.6 5 Sudoeste 12 Sur 0 -- -- 77
2019-09-26 02:00:00 10.9 9 Sur 11 Sur 0 -- -- 77
2019-09-26 01:00:00 11 6 Sur 12 Sur 0 -- -- 76
2019-09-26 00:00:00 11.6 0 Calma 12 Sudoeste 0 -- -- 74
2019-09-25 23:00:00 12.5 9 Sudoeste 12 Sudoeste 0 -- -- 72
2019-09-25 22:00:00 12.6 0 Calma 10 Noroeste 0 -- -- 71
2019-09-25 21:00:00 13.4 8 Noroeste 12 Noroeste 0 -- -- 68
2019-09-25 20:00:00 15.7 11 Noroeste 20 Oeste 0 -- -- 58
2019-09-25 19:00:00 17.4 15 Noroeste 23 Noroeste 0 -- -- 51
2019-09-25 18:00:00 18.2 15 Noroeste 29 Oeste 0 -- -- 49
2019-09-25 17:00:00 17.8 18 Noroeste 29 Noroeste 0 -- -- 49
2019-09-25 16:00:00 17.8 17 Noroeste 41 Noroeste 0 -- -- 49
2019-09-25 15:00:00 17.1 18 Oeste 31 Oeste 0 -- -- 52
2019-09-25 14:00:00 16 18 Noroeste 32 Oeste 0 -- -- 54
2019-09-25 13:00:00 15.4 18 Oeste 32 Noroeste 0 -- -- 57
2019-09-25 12:00:00 14.1 23 Oeste 36 Oeste 0 -- -- 62
2019-09-25 11:00:00 12.7 18 Oeste 29 Oeste 0 -- -- 70
2019-09-25 10:00:00 11 23 Oeste 32 Oeste 0 -- -- 82
2019-09-25 09:00:00 9.7 18 Oeste 25 Oeste 0 -- -- 92
2019-09-25 08:00:00 8.7 10 Noroeste 24 Oeste 0 -- -- 93
2019-09-25 07:00:00 9.2 18 Noroeste 30 Noroeste 0 -- -- 91
2019-09-25 06:00:00 9.7 17 Oeste 28 Oeste 0 -- -- 89
2019-09-25 05:00:00 10.6 20 Noroeste 36 Oeste 0 -- -- 84
2019-09-25 04:00:00 11.8 23 Oeste 35 Oeste 0 -- -- 80
2019-09-25 03:00:00 12.6 22 Noroeste 39 Oeste 0 -- -- 80
2019-09-25 02:00:00 13.4 21 Oeste 33 Oeste 0 -- -- 87
2019-09-25 01:00:00 14.2 21 Oeste 33 Oeste 0 -- -- 87
2019-09-25 00:00:00 14.7 20 Oeste 36 Oeste 0 -- -- 86
2019-09-24 23:00:00 15.3 24 Oeste 37 Oeste 0 -- -- 83
2019-09-24 22:00:00 15.4 18 Oeste 33 Sudoeste 0 -- -- 82
2019-09-24 21:00:00 15.6 18 Oeste 37 Oeste 0 -- -- 83
2019-09-24 20:00:00 16 24 Oeste 42 Oeste 0 -- -- 85
2019-09-24 19:00:00 17.5 19 Oeste 27 Oeste 0 -- -- 76
2019-09-24 18:00:00 15.7 18 Oeste 36 Oeste 0 -- -- 89
2019-09-24 17:00:00 18.5 26 Oeste 41 Oeste 0 -- -- 68
2019-09-24 16:00:00 19.7 24 Oeste 38 Oeste 0 -- -- 64
2019-09-24 15:00:00 19.4 26 Oeste 39 Oeste 0 -- -- 63
2019-09-24 14:00:00 18.5 22 Oeste 36 Sudoeste 0 -- -- 64
2019-09-24 13:00:00 17.4 21 Oeste 35 Oeste 0 -- -- 54
2019-09-24 12:00:00 16.4 24 Noroeste 39 Oeste 0 -- -- 57
2019-09-24 11:00:00 17.7 24 Noroeste 39 Oeste 0 -- -- 55
2019-09-24 10:00:00 16.4 24 Oeste 38 Oeste 0 -- -- 56
2019-09-24 09:00:00 15.2 20 Oeste 32 Oeste 0 -- -- 58
2019-09-24 08:00:00 13.2 23 Oeste 34 Oeste 0 -- -- 66
2019-09-24 07:00:00 13.4 23 Oeste 33 Oeste 0 -- -- 66
2019-09-24 06:00:00 11.1 7 Noroeste 16 Oeste 0 -- -- 76
2019-09-24 05:00:00 12.8 4 Oeste 16 Sudoeste 0 -- -- 67
2019-09-24 04:00:00 13.4 6 Sudoeste 15 Sudoeste 0 -- -- 65
2019-09-24 03:00:00 13.5 5 Sudoeste 12 Sudoeste 0 -- -- 64
2019-09-24 02:00:00 12.4 5 Sudeste 11 Sur 0 -- -- 71
2019-09-24 01:00:00 12.6 10 Sur 14 Sur 0 -- -- 73
2019-09-24 00:00:00 13.2 4 Sur 11 Sudoeste 0 -- -- 72
2019-09-23 23:00:00 13.7 5 Sudoeste 9 Sudoeste 0 -- -- 69
2019-09-23 22:00:00 13.9 6 Sudoeste 12 Sudoeste 0 -- -- 67
2019-09-23 21:00:00 15.5 8 Oeste 10 Oeste 0 -- -- 57
2019-09-23 20:00:00 17.3 6 Oeste 18 Oeste 0 -- -- 51
2019-09-23 19:00:00 19 14 Oeste 24 Oeste 0 -- -- 46
2019-09-23 18:00:00 19.4 17 Oeste 30 Noroeste 0 -- -- 41
2019-09-23 17:00:00 20.5 15 Noroeste 27 Oeste 0 -- -- 42
2019-09-23 16:00:00 20 17 Noroeste 27 Noroeste 0 -- -- 41
2019-09-23 15:00:00 19.8 5 Noroeste 22 Noroeste 0 -- -- 42
2019-09-23 14:00:00 18.1 13 Noroeste 20 Noroeste 0 -- -- 50
2019-09-23 13:00:00 17.4 7 Norte 13 Noroeste 0 -- -- 54
2019-09-23 12:00:00 14.8 6 Norte 10 Norte 0 -- -- 61
2019-09-23 11:00:00 15.2 3 Sudoeste 12 Oeste 0 -- -- 60
2019-09-23 10:00:00 13 9 Oeste 12 Oeste 0 -- -- 64
2019-09-23 09:00:00 10.3 7 Sudoeste 12 Oeste 0 -- -- 73
2019-09-23 08:00:00 7.7 7 Oeste 10 Oeste 0 -- -- 82
2019-09-23 07:00:00 8.6 4 Sudoeste 14 Oeste 0 -- -- 77
2019-09-23 06:00:00 9.1 10 Oeste 14 Oeste 0 -- -- 75
2019-09-23 05:00:00 9.5 6 Oeste 12 Oeste 0 -- -- 74
2019-09-23 04:00:00 9.6 6 Sudoeste 9 Sudoeste 0 -- -- 74
2019-09-23 03:00:00 9.9 7 Oeste 11 Oeste 0 -- -- 74
2019-09-23 02:00:00 10 8 Oeste 15 Oeste 0 -- -- 74
2019-09-23 01:00:00 10.6 10 Oeste 13 Sudoeste 0 -- -- 73
2019-09-23 00:00:00 11.5 8 Oeste 13 Oeste 0 -- -- 72
2019-09-22 23:00:00 11.2 8 Oeste 17 Oeste 0 -- -- 74
2019-09-22 22:00:00 11.5 10 Oeste 14 Oeste 0 -- -- 73
2019-09-22 21:00:00 12.5 8 Oeste 18 Noroeste 0 -- -- 71
2019-09-22 20:00:00 14 13 Noroeste 25 Noroeste 0 -- -- 64
2019-09-22 19:00:00 15.5 21 Oeste 29 Noroeste 0 -- -- 57
2019-09-22 18:00:00 16.2 20 Noroeste 29 Noroeste 0 -- -- 58
2019-09-22 17:00:00 17.5 18 Noroeste 32 Oeste 0 -- -- 55
2019-09-22 16:00:00 16.3 22 Noroeste 32 Noroeste 0 -- -- 52
2019-09-22 15:00:00 15.5 24 Noroeste 35 Oeste 0 -- -- 59
2019-09-22 14:00:00 15.7 21 Oeste 33 Oeste 0 -- -- 65
2019-09-22 13:00:00 14.9 19 Oeste 32 Oeste 0.2 -- -- 71
2019-09-22 12:00:00 11.8 25 Oeste 32 Oeste 0 -- -- 85
2019-09-22 11:00:00 11.3 16 Noroeste 27 Noroeste 0 -- -- 87
2019-09-22 10:00:00 10.6 17 Noroeste 24 Oeste 0 -- -- 93
2019-09-22 09:00:00 9.9 15 Oeste 25 Oeste 0 -- -- 94
2019-09-22 08:00:00 9.8 19 Noroeste 35 Noroeste 0 -- -- 95
2019-09-22 07:00:00 10.3 21 Oeste 40 Oeste 0 -- -- 95
2019-09-22 06:00:00 11.5 27 Oeste 41 Oeste 0.2 -- -- 92
2019-09-22 05:00:00 14.9 23 Sudoeste 50 Sudoeste 0 -- -- 82
2019-09-22 04:00:00 14.4 18 Sudoeste 41 Sudoeste 0.4 -- -- 83
2019-09-22 03:00:00 15.1 22 Sur 43 Sudoeste 0 -- -- 79
2019-09-22 02:00:00 15.2 21 Sudeste 44 Sur 0 -- -- 77
2019-09-22 01:00:00 15.3 24 Sur 51 Sudoeste 0 -- -- 75
2019-09-22 00:00:00 15.5 33 Sudoeste 50 Sur 0 -- -- 72
2019-09-21 23:00:00 15.9 24 Sudoeste 42 Sudoeste 0 -- -- 73
2019-09-21 22:00:00 16 21 Sudoeste 42 Sudoeste 0 -- -- 75
2019-09-21 21:00:00 15.8 23 Sudoeste 36 Sur 0 -- -- 77
2019-09-21 20:00:00 16 14 Sur 30 Sur 0 -- -- 77
2019-09-21 19:00:00 16.2 14 Sudoeste 35 Sudoeste 0 -- -- 74
2019-09-21 18:00:00 17.4 21 Sudoeste 39 Sudoeste 0 -- -- 67
2019-09-21 17:00:00 16.9 21 Sudoeste 36 Sudoeste 0 -- -- 67
2019-09-21 16:00:00 16.7 17 Sur 38 Sudoeste 0 -- -- 71
2019-09-21 15:00:00 17.4 15 Sur 36 Sudoeste 0 -- -- 67
2019-09-21 14:00:00 18.1 22 Sudoeste 36 Sudoeste 0 -- -- 61
2019-09-21 13:00:00 17.4 25 Sudoeste 42 Sudoeste 0 -- -- 62
2019-09-21 12:00:00 17.7 21 Sudoeste 37 Sudoeste 0 -- -- 62
2019-09-21 11:00:00 16.3 18 Sur 36 Sur 0 -- -- 68
2019-09-21 10:00:00 16.8 14 Sur 26 Sur 0 -- -- 68
2019-09-21 09:00:00 14.1 9 Sur 26 Sudoeste 0 -- -- 78
2019-09-21 08:00:00 12.8 9 Sur 24 Sur 0 -- -- 83
2019-09-21 07:00:00 13.5 16 Sur 24 Sur 0 -- -- 82
2019-09-21 06:00:00 13.5 15 Sur 24 Sur 0 -- -- 84
2019-09-21 05:00:00 13 7 Sur 19 Sudeste 0 -- -- 86
2019-09-21 04:00:00 12.4 7 Sur 34 Sudoeste 2.8 -- -- 88
2019-09-21 03:00:00 14.3 3 Sur 24 Sur 0 -- -- 79
2019-09-21 02:00:00 13.3 6 Sur 20 Sudeste 0 -- -- 81
2019-09-21 01:00:00 13.1 4 Sudoeste 31 Oeste 2.4 -- -- 84
2019-09-21 00:00:00 12.7 17 Oeste 34 Sudoeste 3.4 -- -- 86
2019-09-20 23:00:00 12.9 12 Sur 34 Sudoeste 4.8 -- -- 89
2019-09-20 22:00:00 17.6 13 Sur 32 Sur 0 -- -- 76
2019-09-20 21:00:00 18.5 10 Sudoeste 28 Sudeste 0 -- -- 66
2019-09-20 20:00:00 19.1 17 Sur 31 Sur 0 -- -- 63
2019-09-20 19:00:00 20.8 17 Sur 32 Sur 0 -- -- 59
2019-09-20 18:00:00 20.5 23 Sur 33 Sur 0 -- -- 60
2019-09-20 17:00:00 21.6 20 Sur 37 Sur 0 -- -- 54
2019-09-20 16:00:00 21.1 30 Sur 44 Sur 0 -- -- 56
2019-09-20 15:00:00 23.1 20 Sur 39 Sur 0 -- -- 51
2019-09-20 14:00:00 21.9 23 Sur 42 Sur 0 -- -- 52
2019-09-20 13:00:00 20.4 21 Sur 40 Sudoeste 0 -- -- 56
2019-09-20 12:00:00 20 20 Sudoeste 43 Sudoeste 0 -- -- 58
2019-09-20 11:00:00 19.6 17 Sur 36 Sur 0 -- -- 65
2019-09-20 10:00:00 17.7 12 Sur 28 Sur 0 -- -- 70
2019-09-20 09:00:00 15.6 10 Sur 46 Sur 0 -- -- 79
2019-09-20 08:00:00 15.6 21 Sur 47 Sur 0 -- -- 77
2019-09-20 07:00:00 16 18 Sur 41 Sur 0 -- -- 75
2019-09-20 06:00:00 16.7 21 Sur 40 Sudeste 0 -- -- 71
2019-09-20 05:00:00 16.6 17 Sudeste 30 Sudeste 0 -- -- 73
2019-09-20 04:00:00 16.2 12 Sudeste 19 Sur 0 -- -- 72
2019-09-20 03:00:00 16.4 12 Sudeste 19 Sur 0 -- -- 70
2019-09-20 02:00:00 16.1 12 Sudeste 26 Sudeste 0 -- -- 70
2019-09-20 01:00:00 15.3 13 Sudeste 25 Sudeste 0 -- -- 72
2019-09-20 00:00:00 17.1 14 Sudeste 22 Sur 0 -- -- 65
2019-09-19 23:00:00 15.5 6 Sudeste 14 Sudeste 0 -- -- 77
2019-09-19 22:00:00 16.2 9 Sudeste 12 Sur 0 -- -- 72
2019-09-19 21:00:00 16.9 8 Sudeste 12 Sudeste 0 -- -- 74
2019-09-19 20:00:00 19.3 6 Sur 10 Sur 0 -- -- 64
2019-09-19 19:00:00 19.3 3 Sudoeste 20 Noroeste 0.4 -- -- 71
2019-09-19 18:00:00 22.1 8 Sur 19 Sudoeste 0 -- -- 50
2019-09-19 17:00:00 22.9 8 Sur 31 Oeste 0 -- -- 49
2019-09-19 16:00:00 22.5 11 Noroeste 23 Noroeste 0 -- -- 45
2019-09-19 15:00:00 22.6 8 Oeste 19 Noroeste 0 -- -- 44
2019-09-19 14:00:00 23.7 10 Noroeste 19 Noroeste 0 -- -- 45
2019-09-19 13:00:00 22.6 7 Norte 13 Noroeste 0 -- -- 48
2019-09-19 12:00:00 22.2 6 Noroeste 10 Noroeste 0 -- -- 50
2019-09-19 11:00:00 22.2 0 Calma 6 Nordeste 0 -- -- 51
2019-09-19 10:00:00 18.7 3 Sudeste 5 Sur 0 -- -- 67
2019-09-19 09:00:00 15 0 Calma 8 Sudeste 0 -- -- 77
2019-09-19 08:00:00 11 5 Sudeste 7 Sudeste 0 -- -- 88
2019-09-19 07:00:00 11.7 0 Calma 12 Sur 0 -- -- 87
2019-09-19 06:00:00 12.2 7 Sur 11 Sur 0 -- -- 85
2019-09-19 05:00:00 12.9 6 Sur 10 Sur 0 -- -- 81
2019-09-19 04:00:00 13 5 Sudeste 8 Sudeste 0 -- -- 83
2019-09-19 03:00:00 13 4 Este 8 Sudeste 0 -- -- 83
2019-09-19 02:00:00 13.3 5 Sudeste 7 Sudeste 0 -- -- 80
2019-09-19 01:00:00 13.7 6 Sudeste 10 Sudeste 0 -- -- 83
2019-09-19 00:00:00 14.3 5 Sudeste 9 Sudeste 0 -- -- 83
2019-09-18 23:00:00 14.7 5 Sudeste 12 Sur 0 -- -- 81
2019-09-18 22:00:00 15.4 9 Sudeste 11 Sudeste 0 -- -- 80
2019-09-18 21:00:00 16.4 3 Sur 11 Nordeste 0 -- -- 73
2019-09-18 20:00:00 18.8 13 Nordeste 20 Norte 0 -- -- 63
2019-09-18 19:00:00 20.4 18 Norte 23 Noroeste 0 -- -- 56
2019-09-18 18:00:00 23.2 11 Noroeste 25 Noroeste 0 -- -- 45
2019-09-18 17:00:00 22.8 11 Noroeste 28 Noroeste 0 -- -- 45
2019-09-18 16:00:00 22 12 Norte 24 Norte 0 -- -- 50
2019-09-18 15:00:00 22.2 8 Norte 21 Oeste 0 -- -- 46
2019-09-18 14:00:00 22.3 6 Noroeste 17 Noroeste 0 -- -- 48
2019-09-18 13:00:00 20.9 6 Noroeste 14 Noroeste 0 -- -- 54
2019-09-18 12:00:00 19.4 3 Norte 6 Noroeste 0 -- -- 60
2019-09-18 11:00:00 16.4 4 Sudeste 10 Este 0 -- -- 73
2019-09-18 10:00:00 14.4 6 Este 8 Este 0 -- -- 91
2019-09-18 09:00:00 12.5 6 Sur 10 Sudoeste 0 -- -- 94
2019-09-18 08:00:00 11.8 0 Calma 5 Este 0 -- -- 95
2019-09-18 07:00:00 11.6 6 Noroeste 11 Noroeste 0 -- -- 93
2019-09-18 06:00:00 12.8 6 Sudeste 11 Sudeste 0 -- -- 84
2019-09-18 05:00:00 11.7 9 Sudeste 12 Sudeste 0 -- -- 94
2019-09-18 04:00:00 12.3 3 Sudeste 11 Sudeste 0 -- -- 94
2019-09-18 03:00:00 12.4 9 Sudeste 12 Sudeste 0 -- -- 94
2019-09-18 02:00:00 13 4 Sur 13 Este 0.2 -- -- 93
2019-09-18 01:00:00 13.3 4 Nordeste 11 Nordeste 3 -- -- 92
2019-09-18 00:00:00 13.9 11 Sudeste 28 Este 1.8 -- -- 86
2019-09-17 23:00:00 15.2 17 Oeste 44 Sur 1 -- -- 75
2019-09-17 22:00:00 19.7 20 Sudoeste 47 Sudoeste 0 -- -- 55
2019-09-17 21:00:00 20.1 3 Sur 11 Sur 0 -- -- 53
2019-09-15 18:00:00 -- -- -- -- -- -- -- -- --
2019-09-15 17:00:00 -- -- -- -- -- -- -- -- --
2019-09-15 16:00:00 14.2 12 Sudeste 32 Este 4.6 -- -- 94
2019-09-15 15:00:00 17.4 15 Este 31 Nordeste 0 -- -- 73
2019-09-15 14:00:00 19.1 3 Noroeste 10 Oeste 0 -- -- 68
2019-09-15 13:00:00 16.5 3 Sudeste 33 Sudoeste 0.2 -- -- 75
2019-09-15 12:00:00 15 17 Sudeste 36 Sudeste 0.2 -- -- 76
2019-09-15 11:00:00 17.2 26 Sudeste 36 Sudeste 0 -- -- 57
2019-09-15 10:00:00 15 20 Sudeste 29 Sudeste 0 -- -- 63
2019-09-15 09:00:00 14.3 15 Sudeste 24 Sudeste 0 -- -- 67
2019-09-15 08:00:00 13.5 11 Sudeste 15 Sudeste 0 -- -- 70
2019-09-15 07:00:00 13.9 14 Sudeste 25 Sudeste 0 -- -- 69
2019-09-15 06:00:00 14 12 Sudeste 24 Sudeste 0 -- -- 69
2019-09-15 05:00:00 14.7 17 Sudeste 31 Sudeste 0 -- -- 68
2019-09-15 04:00:00 14.4 20 Sudeste 33 Sudeste 0 -- -- 70
2019-09-15 03:00:00 13.9 17 Sudeste 27 Este 0 -- -- 72
2019-09-15 02:00:00 14 18 Sudeste 25 Sudeste 0 -- -- 77
2019-09-15 01:00:00 13.8 9 Este 17 Sudeste 0 -- -- 81
2019-09-15 00:00:00 13 12 Sudeste 19 Este 0 -- -- 87